This is the latest recevied weather packets stored in our database for station/object OM2RC-6. If no packets are shown the sender has not sent any weather packets the latest 10 day(s).
| Time | Temp. | Humidity | Pressure | Rain* | Wind** | Luminosity | Snow |
|---|---|---|---|---|---|---|---|
| 1777371610 | 20° C | 31% | 1021.5 hPa | - | - | - | - |
| 1777371309 | 20.56° C | 31% | 1021.6 hPa | - | - | - | - |
| 1777371007 | 19.44° C | 32% | 1021.7 hPa | - | - | - | - |
| 1777370706 | 18.89° C | 33% | 1021.6 hPa | - | - | - | - |
| 1777370406 | 19.44° C | 32% | 1021.7 hPa | - | - | - | - |
| 1777370105 | 21.11° C | 31% | 1021.7 hPa | - | - | - | - |
| 1777369201 | 18.33° C | 35% | 1021.9 hPa | - | - | - | - |
| 1777368901 | 18.33° C | 34% | 1021.9 hPa | - | - | - | - |
| 1777368600 | 18.33° C | 35% | 1021.9 hPa | - | - | - | - |
| 1777368299 | 19.44° C | 32% | 1021.9 hPa | - | - | - | - |
| 1777367095 | 21.11° C | 32% | 1022 hPa | - | - | - | - |
| 1777365590 | 19.44° C | 33% | 1022.1 hPa | - | - | - | - |
| 1777365289 | 20° C | 33% | 1022.1 hPa | - | - | - | - |
| 1777364988 | 18.33° C | 34% | 1022 hPa | - | - | - | - |
| 1777364687 | 19.44° C | 35% | 1022.1 hPa | - | - | - | - |
| 1777364385 | 20° C | 33% | 1022 hPa | - | - | - | - |
| 1777364084 | 18.33° C | 37% | 1022 hPa | - | - | - | - |
| 1777363482 | 17.78° C | 40% | 1022.1 hPa | - | - | - | - |
| 1777363181 | 17.22° C | 41% | 1022.2 hPa | - | - | - | - |
| 1777362880 | 16.11° C | 45% | 1022.3 hPa | - | - | - | - |
| 1777362579 | 16.11° C | 44% | 1022.3 hPa | - | - | - | - |
| 1777362278 | 16.11° C | 48% | 1022.3 hPa | - | - | - | - |
| 1777361676 | 15° C | 58% | 1022.3 hPa | - | - | - | - |
| 1777361074 | 15° C | 66% | 1022.2 hPa | - | - | - | - |
| 1777360772 | 13.89° C | 68% | 1022.2 hPa | - | - | - | - |
* Rain since midnight (hover to see other rain measurements)
** Current wind speed in m/s (hover to see current wind gust speed)